sensor_id;sensor_type;location;lat;lon;timestamp;P1;durP1;ratioP1;P2;durP2;ratioP2
65982;SDS011;52740;40.620;-8.640;2022-08-25T00:01:39;15.55;;;10.38;;
65982;SDS011;52740;40.620;-8.640;2022-08-25T00:03:43;11.60;;;10.18;;
65982;SDS011;52740;40.620;-8.640;2022-08-25T00:05:44;17.13;;;11.30;;
65982;SDS011;52740;40.620;-8.640;2022-08-25T00:07:45;11.73;;;10.77;;
65982;SDS011;52740;40.620;-8.640;2022-08-25T00:09:45;12.18;;;10.95;;
65982;SDS011;52740;40.620;-8.640;2022-08-25T00:11:47;16.27;;;11.93;;
65982;SDS011;52740;40.620;-8.640;2022-08-25T00:13:50;13.85;;;12.32;;
65982;SDS011;52740;40.620;-8.640;2022-08-25T00:15:53;12.52;;;11.43;;
65982;SDS011;52740;40.620;-8.640;2022-08-25T00:17:54;23.80;;;12.52;;
65982;SDS011;52740;40.620;-8.640;2022-08-25T00:19:55;15.68;;;11.25;;
65982;SDS011;52740;40.620;-8.640;2022-08-25T00:21:55;11.05;;;10.00;;
65982;SDS011;52740;40.620;-8.640;2022-08-25T00:23:56;11.00;;;10.18;;
65982;SDS011;52740;40.620;-8.640;2022-08-25T00:25:57;12.63;;;10.88;;
65982;SDS011;52740;40.620;-8.640;2022-08-25T00:27:58;12.55;;;11.20;;
65982;SDS011;52740;40.620;-8.640;2022-08-25T00:29:59;11.57;;;10.68;;
65982;SDS011;52740;40.620;-8.640;2022-08-25T00:32:00;16.35;;;11.30;;
65982;SDS011;52740;40.620;-8.640;2022-08-25T00:34:02;12.32;;;11.13;;
65982;SDS011;52740;40.620;-8.640;2022-08-25T00:36:06;11.73;;;10.38;;
65982;SDS011;52740;40.620;-8.640;2022-08-25T00:38:09;11.73;;;9.48;;
65982;SDS011;52740;40.620;-8.640;2022-08-25T00:40:11;18.75;;;11.10;;
65982;SDS011;52740;40.620;-8.640;2022-08-25T00:42:11;11.02;;;10.13;;
65982;SDS011;52740;40.620;-8.640;2022-08-25T00:44:13;11.35;;;9.73;;
65982;SDS011;52740;40.620;-8.640;2022-08-25T00:46:23;11.40;;;10.38;;
65982;SDS011;52740;40.620;-8.640;2022-08-25T00:48:26;10.90;;;9.88;;
65982;SDS011;52740;40.620;-8.640;2022-08-25T00:50:28;11.43;;;9.65;;
65982;SDS011;52740;40.620;-8.640;2022-08-25T00:52:32;10.00;;;9.18;;
65982;SDS011;52740;40.620;-8.640;2022-08-25T00:54:38;11.10;;;10.18;;
65982;SDS011;52740;40.620;-8.640;2022-08-25T00:56:44;10.60;;;9.48;;
65982;SDS011;52740;40.620;-8.640;2022-08-25T00:58:46;11.52;;;10.10;;
65982;SDS011;52740;40.620;-8.640;2022-08-25T01:00:48;9.82;;;8.88;;
65982;SDS011;52740;40.620;-8.640;2022-08-25T01:02:51;12.07;;;10.18;;
65982;SDS011;52740;40.620;-8.640;2022-08-25T01:04:52;9.98;;;9.02;;
65982;SDS011;52740;40.620;-8.640;2022-08-25T01:06:53;11.30;;;10.15;;
65982;SDS011;52740;40.620;-8.640;2022-08-25T01:08:57;11.32;;;10.13;;
65982;SDS011;52740;40.620;-8.640;2022-08-25T01:10:58;10.75;;;8.60;;
65982;SDS011;52740;40.620;-8.640;2022-08-25T01:13:05;12.23;;;9.68;;
65982;SDS011;52740;40.620;-8.640;2022-08-25T01:15:10;12.95;;;9.57;;
65982;SDS011;52740;40.620;-8.640;2022-08-25T01:17:14;18.05;;;10.75;;
65982;SDS011;52740;40.620;-8.640;2022-08-25T01:19:15;12.68;;;11.35;;
65982;SDS011;52740;40.620;-8.640;2022-08-25T01:21:17;12.32;;;10.15;;
65982;SDS011;52740;40.620;-8.640;2022-08-25T01:23:19;10.57;;;9.55;;
65982;SDS011;52740;40.620;-8.640;2022-08-25T01:27:34;10.32;;;9.68;;
65982;SDS011;52740;40.620;-8.640;2022-08-25T01:29:35;14.77;;;10.85;;
65982;SDS011;52740;40.620;-8.640;2022-08-25T01:31:37;10.93;;;10.25;;
65982;SDS011;52740;40.620;-8.640;2022-08-25T01:33:38;12.73;;;9.18;;
65982;SDS011;52740;40.620;-8.640;2022-08-25T01:35:39;11.55;;;10.10;;
65982;SDS011;52740;40.620;-8.640;2022-08-25T01:37:40;11.30;;;9.85;;
65982;SDS011;52740;40.620;-8.640;2022-08-25T01:39:41;12.48;;;10.68;;
65982;SDS011;52740;40.620;-8.640;2022-08-25T01:44:13;13.32;;;8.90;;
65982;SDS011;52740;40.620;-8.640;2022-08-25T01:46:14;11.93;;;9.38;;
65982;SDS011;52740;40.620;-8.640;2022-08-25T01:48:16;10.20;;;9.30;;
65982;SDS011;52740;40.620;-8.640;2022-08-25T01:50:17;10.95;;;9.60;;
65982;SDS011;52740;40.620;-8.640;2022-08-25T01:52:28;9.80;;;9.10;;
65982;SDS011;52740;40.620;-8.640;2022-08-25T01:54:33;11.18;;;10.40;;
65982;SDS011;52740;40.620;-8.640;2022-08-25T01:56:34;14.55;;;9.27;;
65982;SDS011;52740;40.620;-8.640;2022-08-25T01:58:36;9.50;;;8.63;;
65982;SDS011;52740;40.620;-8.640;2022-08-25T02:00:43;9.43;;;8.50;;
65982;SDS011;52740;40.620;-8.640;2022-08-25T02:02:45;11.15;;;9.15;;
65982;SDS011;52740;40.620;-8.640;2022-08-25T02:04:46;9.82;;;8.63;;
65982;SDS011;52740;40.620;-8.640;2022-08-25T02:06:47;14.38;;;8.40;;
65982;SDS011;52740;40.620;-8.640;2022-08-25T02:08:50;10.90;;;9.55;;
65982;SDS011;52740;40.620;-8.640;2022-08-25T02:10:52;10.13;;;8.98;;
65982;SDS011;52740;40.620;-8.640;2022-08-25T02:12:54;10.32;;;9.52;;
65982;SDS011;52740;40.620;-8.640;2022-08-25T02:14:55;8.48;;;7.88;;
65982;SDS011;52740;40.620;-8.640;2022-08-25T02:16:56;10.25;;;9.43;;
65982;SDS011;52740;40.620;-8.640;2022-08-25T02:18:57;8.18;;;7.50;;
65982;SDS011;52740;40.620;-8.640;2022-08-25T02:20:58;9.13;;;8.43;;
65982;SDS011;52740;40.620;-8.640;2022-08-25T02:22:59;9.07;;;8.52;;
65982;SDS011;52740;40.620;-8.640;2022-08-25T02:24:59;9.05;;;8.38;;
65982;SDS011;52740;40.620;-8.640;2022-08-25T02:27:00;9.18;;;8.57;;
65982;SDS011;52740;40.620;-8.640;2022-08-25T02:29:03;8.43;;;7.82;;
65982;SDS011;52740;40.620;-8.640;2022-08-25T02:31:06;8.77;;;7.97;;
65982;SDS011;52740;40.620;-8.640;2022-08-25T02:33:07;9.02;;;8.32;;
65982;SDS011;52740;40.620;-8.640;2022-08-25T02:35:08;8.55;;;7.95;;
65982;SDS011;52740;40.620;-8.640;2022-08-25T02:37:09;9.48;;;8.70;;
65982;SDS011;52740;40.620;-8.640;2022-08-25T02:39:10;9.32;;;8.73;;
65982;SDS011;52740;40.620;-8.640;2022-08-25T02:41:12;8.77;;;8.18;;
65982;SDS011;52740;40.620;-8.640;2022-08-25T02:43:19;8.18;;;7.70;;
65982;SDS011;52740;40.620;-8.640;2022-08-25T02:45:20;8.45;;;8.00;;
65982;SDS011;52740;40.620;-8.640;2022-08-25T02:47:20;9.43;;;8.75;;
65982;SDS011;52740;40.620;-8.640;2022-08-25T02:49:21;9.45;;;8.65;;
65982;SDS011;52740;40.620;-8.640;2022-08-25T02:51:22;8.27;;;7.78;;
65982;SDS011;52740;40.620;-8.640;2022-08-25T02:53:25;8.50;;;7.80;;
65982;SDS011;52740;40.620;-8.640;2022-08-25T02:55:26;9.50;;;8.82;;
65982;SDS011;52740;40.620;-8.640;2022-08-25T02:57:27;9.35;;;8.55;;
65982;SDS011;52740;40.620;-8.640;2022-08-25T02:59:28;8.48;;;7.90;;
65982;SDS011;52740;40.620;-8.640;2022-08-25T03:01:29;8.77;;;8.27;;
65982;SDS011;52740;40.620;-8.640;2022-08-25T03:03:32;8.55;;;8.05;;
65982;SDS011;52740;40.620;-8.640;2022-08-25T03:05:33;9.32;;;8.55;;
65982;SDS011;52740;40.620;-8.640;2022-08-25T03:07:34;8.80;;;8.20;;
65982;SDS011;52740;40.620;-8.640;2022-08-25T03:09:37;8.77;;;8.05;;
65982;SDS011;52740;40.620;-8.640;2022-08-25T03:11:38;9.02;;;8.27;;
65982;SDS011;52740;40.620;-8.640;2022-08-25T03:13:39;9.15;;;8.45;;
65982;SDS011;52740;40.620;-8.640;2022-08-25T03:15:40;8.90;;;8.20;;
65982;SDS011;52740;40.620;-8.640;2022-08-25T03:17:42;9.25;;;8.63;;
65982;SDS011;52740;40.620;-8.640;2022-08-25T03:19:47;9.25;;;8.48;;
65982;SDS011;52740;40.620;-8.640;2022-08-25T03:21:48;8.98;;;8.38;;
65982;SDS011;52740;40.620;-8.640;2022-08-25T03:23:54;9.82;;;9.00;;
65982;SDS011;52740;40.620;-8.640;2022-08-25T03:25:57;9.90;;;8.93;;
65982;SDS011;52740;40.620;-8.640;2022-08-25T03:28:16;8.88;;;7.88;;
65982;SDS011;52740;40.620;-8.640;2022-08-25T03:30:18;9.73;;;8.85;;
65982;SDS011;52740;40.620;-8.640;2022-08-25T03:32:19;10.63;;;9.63;;
65982;SDS011;52740;40.620;-8.640;2022-08-25T03:34:20;8.57;;;8.07;;
65982;SDS011;52740;40.620;-8.640;2022-08-25T03:36:21;9.82;;;9.05;;
65982;SDS011;52740;40.620;-8.640;2022-08-25T03:38:23;9.55;;;8.70;;
65982;SDS011;52740;40.620;-8.640;2022-08-25T03:40:25;9.60;;;8.70;;
65982;SDS011;52740;40.620;-8.640;2022-08-25T03:42:26;9.43;;;8.52;;
65982;SDS011;52740;40.620;-8.640;2022-08-25T03:44:26;9.07;;;8.38;;
65982;SDS011;52740;40.620;-8.640;2022-08-25T03:46:28;9.85;;;8.57;;
65982;SDS011;52740;40.620;-8.640;2022-08-25T03:48:31;8.57;;;7.82;;
65982;SDS011;52740;40.620;-8.640;2022-08-25T03:50:32;8.15;;;7.55;;
65982;SDS011;52740;40.620;-8.640;2022-08-25T03:52:34;8.32;;;7.82;;
65982;SDS011;52740;40.620;-8.640;2022-08-25T03:54:35;9.82;;;9.02;;
65982;SDS011;52740;40.620;-8.640;2022-08-25T03:56:36;10.18;;;9.38;;
65982;SDS011;52740;40.620;-8.640;2022-08-25T03:58:37;8.80;;;8.00;;
65982;SDS011;52740;40.620;-8.640;2022-08-25T04:00:38;8.80;;;7.93;;
65982;SDS011;52740;40.620;-8.640;2022-08-25T04:02:40;19.48;;;12.88;;
65982;SDS011;52740;40.620;-8.640;2022-08-25T04:04:41;8.18;;;7.57;;
65982;SDS011;52740;40.620;-8.640;2022-08-25T04:06:42;9.25;;;8.32;;
65982;SDS011;52740;40.620;-8.640;2022-08-25T04:08:44;9.98;;;9.23;;
65982;SDS011;52740;40.620;-8.640;2022-08-25T04:10:45;9.40;;;8.60;;
65982;SDS011;52740;40.620;-8.640;2022-08-25T04:12:45;9.55;;;8.85;;
65982;SDS011;52740;40.620;-8.640;2022-08-25T04:14:48;9.27;;;8.57;;
65982;SDS011;52740;40.620;-8.640;2022-08-25T04:16:50;9.75;;;9.00;;
65982;SDS011;52740;40.620;-8.640;2022-08-25T04:18:52;13.00;;;8.48;;
65982;SDS011;52740;40.620;-8.640;2022-08-25T04:21:00;9.82;;;8.88;;
65982;SDS011;52740;40.620;-8.640;2022-08-25T04:23:02;9.45;;;8.65;;
65982;SDS011;52740;40.620;-8.640;2022-08-25T04:25:04;9.93;;;9.13;;
65982;SDS011;52740;40.620;-8.640;2022-08-25T04:27:06;11.35;;;9.70;;
65982;SDS011;52740;40.620;-8.640;2022-08-25T04:29:07;9.30;;;8.50;;
65982;SDS011;52740;40.620;-8.640;2022-08-25T04:31:10;9.25;;;8.65;;
65982;SDS011;52740;40.620;-8.640;2022-08-25T04:33:13;9.20;;;8.52;;
65982;SDS011;52740;40.620;-8.640;2022-08-25T04:35:14;9.10;;;8.40;;
65982;SDS011;52740;40.620;-8.640;2022-08-25T04:37:15;10.05;;;9.15;;
65982;SDS011;52740;40.620;-8.640;2022-08-25T04:39:16;9.82;;;9.02;;
65982;SDS011;52740;40.620;-8.640;2022-08-25T04:41:20;11.07;;;9.27;;
65982;SDS011;52740;40.620;-8.640;2022-08-25T04:43:23;9.65;;;8.85;;
65982;SDS011;52740;40.620;-8.640;2022-08-25T04:45:24;11.00;;;9.05;;
65982;SDS011;52740;40.620;-8.640;2022-08-25T04:47:25;10.10;;;9.20;;
65982;SDS011;52740;40.620;-8.640;2022-08-25T04:49:25;10.70;;;9.68;;
65982;SDS011;52740;40.620;-8.640;2022-08-25T04:51:28;11.05;;;9.95;;
65982;SDS011;52740;40.620;-8.640;2022-08-25T04:53:31;14.57;;;10.80;;
65982;SDS011;52740;40.620;-8.640;2022-08-25T04:55:38;13.85;;;11.18;;
65982;SDS011;52740;40.620;-8.640;2022-08-25T04:57:42;12.38;;;9.93;;
65982;SDS011;52740;40.620;-8.640;2022-08-25T04:59:43;10.32;;;9.32;;
65982;SDS011;52740;40.620;-8.640;2022-08-25T05:01:44;11.95;;;9.95;;
65982;SDS011;52740;40.620;-8.640;2022-08-25T05:03:47;13.50;;;9.73;;
65982;SDS011;52740;40.620;-8.640;2022-08-25T05:05:52;11.77;;;9.65;;
65982;SDS011;52740;40.620;-8.640;2022-08-25T05:07:52;13.10;;;10.20;;
65982;SDS011;52740;40.620;-8.640;2022-08-25T05:09:53;11.85;;;10.65;;
65982;SDS011;52740;40.620;-8.640;2022-08-25T05:11:54;13.40;;;10.68;;
65982;SDS011;52740;40.620;-8.640;2022-08-25T05:13:55;10.98;;;9.32;;
65982;SDS011;52740;40.620;-8.640;2022-08-25T05:15:57;10.25;;;9.25;;
65982;SDS011;52740;40.620;-8.640;2022-08-25T05:17:59;12.95;;;10.02;;
65982;SDS011;52740;40.620;-8.640;2022-08-25T05:20:00;11.27;;;9.30;;
65982;SDS011;52740;40.620;-8.640;2022-08-25T05:22:00;11.38;;;10.02;;
65982;SDS011;52740;40.620;-8.640;2022-08-25T05:24:01;13.70;;;10.90;;
65982;SDS011;52740;40.620;-8.640;2022-08-25T05:26:04;13.70;;;12.40;;
65982;SDS011;52740;40.620;-8.640;2022-08-25T05:28:10;12.18;;;9.73;;
65982;SDS011;52740;40.620;-8.640;2022-08-25T05:30:11;11.00;;;9.57;;
65982;SDS011;52740;40.620;-8.640;2022-08-25T05:32:12;10.20;;;9.20;;
65982;SDS011;52740;40.620;-8.640;2022-08-25T05:34:12;10.82;;;9.75;;
65982;SDS011;52740;40.620;-8.640;2022-08-25T05:36:14;10.80;;;9.73;;
65982;SDS011;52740;40.620;-8.640;2022-08-25T05:38:16;10.43;;;9.18;;
65982;SDS011;52740;40.620;-8.640;2022-08-25T05:40:17;10.90;;;9.20;;
65982;SDS011;52740;40.620;-8.640;2022-08-25T05:42:18;11.07;;;10.07;;
65982;SDS011;52740;40.620;-8.640;2022-08-25T05:44:19;14.77;;;10.05;;
65982;SDS011;52740;40.620;-8.640;2022-08-25T05:46:20;10.43;;;9.35;;
65982;SDS011;52740;40.620;-8.640;2022-08-25T05:48:21;9.90;;;8.90;;
65982;SDS011;52740;40.620;-8.640;2022-08-25T05:50:22;9.68;;;8.63;;
65982;SDS011;52740;40.620;-8.640;2022-08-25T05:52:25;11.52;;;9.15;;
65982;SDS011;52740;40.620;-8.640;2022-08-25T05:54:27;10.63;;;9.30;;
65982;SDS011;52740;40.620;-8.640;2022-08-25T05:56:27;9.50;;;8.68;;
65982;SDS011;52740;40.620;-8.640;2022-08-25T05:58:28;8.80;;;8.00;;
65982;SDS011;52740;40.620;-8.640;2022-08-25T06:00:30;8.55;;;7.75;;
65982;SDS011;52740;40.620;-8.640;2022-08-25T06:02:31;9.73;;;8.63;;
65982;SDS011;52740;40.620;-8.640;2022-08-25T06:04:43;8.93;;;7.82;;
65982;SDS011;52740;40.620;-8.640;2022-08-25T06:06:43;8.75;;;7.88;;
65982;SDS011;52740;40.620;-8.640;2022-08-25T06:08:44;9.60;;;8.10;;
65982;SDS011;52740;40.620;-8.640;2022-08-25T06:10:50;10.40;;;8.30;;
65982;SDS011;52740;40.620;-8.640;2022-08-25T06:12:51;10.32;;;7.90;;
65982;SDS011;52740;40.620;-8.640;2022-08-25T06:14:52;8.50;;;7.60;;
65982;SDS011;52740;40.620;-8.640;2022-08-25T06:16:53;8.13;;;7.28;;
65982;SDS011;52740;40.620;-8.640;2022-08-25T06:18:53;9.40;;;8.07;;
65982;SDS011;52740;40.620;-8.640;2022-08-25T06:20:54;12.30;;;7.30;;
65982;SDS011;52740;40.620;-8.640;2022-08-25T06:22:55;7.68;;;7.05;;
65982;SDS011;52740;40.620;-8.640;2022-08-25T06:24:57;7.93;;;7.20;;
65982;SDS011;52740;40.620;-8.640;2022-08-25T06:26:58;8.27;;;7.57;;
65982;SDS011;52740;40.620;-8.640;2022-08-25T06:28:59;8.18;;;7.38;;
65982;SDS011;52740;40.620;-8.640;2022-08-25T06:31:00;8.70;;;7.82;;
65982;SDS011;52740;40.620;-8.640;2022-08-25T06:33:02;7.65;;;6.95;;
65982;SDS011;52740;40.620;-8.640;2022-08-25T06:35:04;7.65;;;7.00;;
65982;SDS011;52740;40.620;-8.640;2022-08-25T06:37:06;8.45;;;7.10;;
65982;SDS011;52740;40.620;-8.640;2022-08-25T06:39:07;11.88;;;6.85;;
65982;SDS011;52740;40.620;-8.640;2022-08-25T06:41:08;7.18;;;6.55;;
65982;SDS011;52740;40.620;-8.640;2022-08-25T06:43:13;7.47;;;6.65;;
65982;SDS011;52740;40.620;-8.640;2022-08-25T06:45:14;8.18;;;7.38;;
65982;SDS011;52740;40.620;-8.640;2022-08-25T06:47:16;7.75;;;6.35;;
65982;SDS011;52740;40.620;-8.640;2022-08-25T06:49:17;7.63;;;6.82;;
65982;SDS011;52740;40.620;-8.640;2022-08-25T06:51:19;8.70;;;7.38;;
65982;SDS011;52740;40.620;-8.640;2022-08-25T06:53:21;7.38;;;6.78;;
65982;SDS011;52740;40.620;-8.640;2022-08-25T06:55:21;9.82;;;6.88;;
65982;SDS011;52740;40.620;-8.640;2022-08-25T06:57:22;9.35;;;7.05;;
65982;SDS011;52740;40.620;-8.640;2022-08-25T06:59:23;11.10;;;8.40;;
65982;SDS011;52740;40.620;-8.640;2022-08-25T07:01:24;14.60;;;9.30;;
65982;SDS011;52740;40.620;-8.640;2022-08-25T07:03:26;18.17;;;9.18;;
65982;SDS011;52740;40.620;-8.640;2022-08-25T07:05:28;11.60;;;8.93;;
65982;SDS011;52740;40.620;-8.640;2022-08-25T07:07:29;13.18;;;9.32;;
65982;SDS011;52740;40.620;-8.640;2022-08-25T07:09:30;9.75;;;7.72;;
65982;SDS011;52740;40.620;-8.640;2022-08-25T07:11:32;14.82;;;7.97;;
65982;SDS011;52740;40.620;-8.640;2022-08-25T07:13:34;13.30;;;8.82;;
65982;SDS011;52740;40.620;-8.640;2022-08-25T07:15:40;8.40;;;7.43;;
65982;SDS011;52740;40.620;-8.640;2022-08-25T07:17:43;8.80;;;7.18;;
65982;SDS011;52740;40.620;-8.640;2022-08-25T07:19:43;7.63;;;6.93;;
65982;SDS011;52740;40.620;-8.640;2022-08-25T07:21:44;8.35;;;7.20;;
65982;SDS011;52740;40.620;-8.640;2022-08-25T07:23:46;13.13;;;8.00;;
65982;SDS011;52740;40.620;-8.640;2022-08-25T07:25:47;13.10;;;10.80;;
65982;SDS011;52740;40.620;-8.640;2022-08-25T07:27:48;9.85;;;8.00;;
65982;SDS011;52740;40.620;-8.640;2022-08-25T07:29:48;12.50;;;9.27;;
65982;SDS011;52740;40.620;-8.640;2022-08-25T07:31:49;14.88;;;9.32;;
65982;SDS011;52740;40.620;-8.640;2022-08-25T07:33:50;12.52;;;9.63;;
65982;SDS011;52740;40.620;-8.640;2022-08-25T07:36:09;18.63;;;11.00;;
65982;SDS011;52740;40.620;-8.640;2022-08-25T07:38:10;11.70;;;10.50;;
65982;SDS011;52740;40.620;-8.640;2022-08-25T07:40:13;11.85;;;10.82;;
65982;SDS011;52740;40.620;-8.640;2022-08-25T07:42:16;13.55;;;12.45;;
65982;SDS011;52740;40.620;-8.640;2022-08-25T07:44:17;14.80;;;13.48;;
65982;SDS011;52740;40.620;-8.640;2022-08-25T07:46:19;17.42;;;15.95;;
65982;SDS011;52740;40.620;-8.640;2022-08-25T07:48:20;20.33;;;18.83;;
65982;SDS011;52740;40.620;-8.640;2022-08-25T07:50:20;22.98;;;21.02;;
65982;SDS011;52740;40.620;-8.640;2022-08-25T07:52:22;23.92;;;22.25;;
65982;SDS011;52740;40.620;-8.640;2022-08-25T07:54:22;24.77;;;22.42;;
65982;SDS011;52740;40.620;-8.640;2022-08-25T07:56:26;27.35;;;25.17;;
65982;SDS011;52740;40.620;-8.640;2022-08-25T07:58:27;23.42;;;21.45;;
65982;SDS011;52740;40.620;-8.640;2022-08-25T08:00:28;29.75;;;26.95;;
65982;SDS011;52740;40.620;-8.640;2022-08-25T08:04:34;18.08;;;15.88;;
65982;SDS011;52740;40.620;-8.640;2022-08-25T08:06:37;18.92;;;17.20;;
65982;SDS011;52740;40.620;-8.640;2022-08-25T08:08:40;21.45;;;20.05;;
65982;SDS011;52740;40.620;-8.640;2022-08-25T08:10:44;26.23;;;23.85;;
65982;SDS011;52740;40.620;-8.640;2022-08-25T08:12:45;22.70;;;20.75;;
65982;SDS011;52740;40.620;-8.640;2022-08-25T08:14:46;21.73;;;20.20;;
65982;SDS011;52740;40.620;-8.640;2022-08-25T08:16:47;22.98;;;20.80;;
65982;SDS011;52740;40.620;-8.640;2022-08-25T08:18:48;17.83;;;16.20;;
65982;SDS011;52740;40.620;-8.640;2022-08-25T08:20:49;16.00;;;14.27;;
65982;SDS011;52740;40.620;-8.640;2022-08-25T08:22:50;17.50;;;13.02;;
65982;SDS011;52740;40.620;-8.640;2022-08-25T08:24:51;13.93;;;12.32;;
65982;SDS011;52740;40.620;-8.640;2022-08-25T08:26:52;13.25;;;11.95;;
65982;SDS011;52740;40.620;-8.640;2022-08-25T08:28:53;17.25;;;13.00;;
65982;SDS011;52740;40.620;-8.640;2022-08-25T08:30:54;13.57;;;12.18;;
65982;SDS011;52740;40.620;-8.640;2022-08-25T08:32:55;13.32;;;11.77;;
65982;SDS011;52740;40.620;-8.640;2022-08-25T08:34:56;15.55;;;10.68;;
65982;SDS011;52740;40.620;-8.640;2022-08-25T08:36:57;14.25;;;10.13;;
65982;SDS011;52740;40.620;-8.640;2022-08-25T08:38:58;12.60;;;9.50;;
65982;SDS011;52740;40.620;-8.640;2022-08-25T08:43:52;12.32;;;8.60;;
65982;SDS011;52740;40.620;-8.640;2022-08-25T08:46:08;11.05;;;9.90;;
65982;SDS011;52740;40.620;-8.640;2022-08-25T08:55:06;11.20;;;10.02;;
65982;SDS011;52740;40.620;-8.640;2022-08-25T08:57:16;12.77;;;10.60;;
65982;SDS011;52740;40.620;-8.640;2022-08-25T08:59:22;13.23;;;10.52;;
65982;SDS011;52740;40.620;-8.640;2022-08-25T09:03:41;9.40;;;8.50;;
65982;SDS011;52740;40.620;-8.640;2022-08-25T09:05:47;10.57;;;9.55;;
65982;SDS011;52740;40.620;-8.640;2022-08-25T09:07:53;12.70;;;9.70;;
65982;SDS011;52740;40.620;-8.640;2022-08-25T09:10:06;10.90;;;10.05;;
65982;SDS011;52740;40.620;-8.640;2022-08-25T09:17:01;12.13;;;10.25;;
65982;SDS011;52740;40.620;-8.640;2022-08-25T09:19:20;14.57;;;10.82;;
65982;SDS011;52740;40.620;-8.640;2022-08-25T09:21:36;13.13;;;11.75;;
65982;SDS011;52740;40.620;-8.640;2022-08-25T09:28:46;15.20;;;12.60;;
65982;SDS011;52740;40.620;-8.640;2022-08-25T09:32:54;19.17;;;17.55;;
65982;SDS011;52740;40.620;-8.640;2022-08-25T09:35:03;25.77;;;23.45;;
65982;SDS011;52740;40.620;-8.640;2022-08-25T09:37:05;30.95;;;28.80;;
65982;SDS011;52740;40.620;-8.640;2022-08-25T09:39:06;33.03;;;30.83;;
65982;SDS011;52740;40.620;-8.640;2022-08-25T09:41:07;33.08;;;30.98;;
65982;SDS011;52740;40.620;-8.640;2022-08-25T09:43:23;31.77;;;29.77;;
65982;SDS011;52740;40.620;-8.640;2022-08-25T09:45:42;33.42;;;31.15;;
65982;SDS011;52740;40.620;-8.640;2022-08-25T09:47:45;33.92;;;31.67;;
65982;SDS011;52740;40.620;-8.640;2022-08-25T09:50:04;38.97;;;35.97;;
65982;SDS011;52740;40.620;-8.640;2022-08-25T09:54:24;48.25;;;45.10;;
65982;SDS011;52740;40.620;-8.640;2022-08-25T09:56:27;48.25;;;44.85;;
65982;SDS011;52740;40.620;-8.640;2022-08-25T09:58:31;45.20;;;42.42;;
65982;SDS011;52740;40.620;-8.640;2022-08-25T10:00:32;38.70;;;35.75;;
65982;SDS011;52740;40.620;-8.640;2022-08-25T10:02:33;23.25;;;21.67;;
65982;SDS011;52740;40.620;-8.640;2022-08-25T10:04:35;19.52;;;18.10;;
65982;SDS011;52740;40.620;-8.640;2022-08-25T10:06:44;17.13;;;15.88;;
65982;SDS011;52740;40.620;-8.640;2022-08-25T10:10:52;16.75;;;15.25;;
65982;SDS011;52740;40.620;-8.640;2022-08-25T10:12:54;16.15;;;15.00;;
65982;SDS011;52740;40.620;-8.640;2022-08-25T10:19:26;18.60;;;16.95;;
65982;SDS011;52740;40.620;-8.640;2022-08-25T10:21:28;36.70;;;32.28;;
65982;SDS011;52740;40.620;-8.640;2022-08-25T10:23:29;40.50;;;38.15;;
65982;SDS011;52740;40.620;-8.640;2022-08-25T10:25:32;45.95;;;43.25;;
65982;SDS011;52740;40.620;-8.640;2022-08-25T10:27:51;46.90;;;44.30;;
65982;SDS011;52740;40.620;-8.640;2022-08-25T10:30:10;43.22;;;40.63;;
65982;SDS011;52740;40.620;-8.640;2022-08-25T10:32:22;41.28;;;38.45;;
65982;SDS011;52740;40.620;-8.640;2022-08-25T10:34:45;24.13;;;22.42;;
65982;SDS011;52740;40.620;-8.640;2022-08-25T10:37:11;19.85;;;18.00;;
65982;SDS011;52740;40.620;-8.640;2022-08-25T10:39:25;19.35;;;18.10;;
65982;SDS011;52740;40.620;-8.640;2022-08-25T10:43:48;20.10;;;18.70;;
65982;SDS011;52740;40.620;-8.640;2022-08-25T10:46:19;20.60;;;19.23;;
65982;SDS011;52740;40.620;-8.640;2022-08-25T10:50:47;27.90;;;26.17;;
65982;SDS011;52740;40.620;-8.640;2022-08-25T11:00:15;19.13;;;17.95;;
65982;SDS011;52740;40.620;-8.640;2022-08-25T11:04:58;19.27;;;17.85;;
65982;SDS011;52740;40.620;-8.640;2022-08-25T11:07:23;19.20;;;18.00;;
65982;SDS011;52740;40.620;-8.640;2022-08-25T11:09:29;19.80;;;18.00;;
65982;SDS011;52740;40.620;-8.640;2022-08-25T11:16:03;17.42;;;16.27;;
65982;SDS011;52740;40.620;-8.640;2022-08-25T11:18:30;20.23;;;18.90;;
65982;SDS011;52740;40.620;-8.640;2022-08-25T11:20:33;21.33;;;19.45;;
65982;SDS011;52740;40.620;-8.640;2022-08-25T11:22:41;19.98;;;18.85;;
65982;SDS011;52740;40.620;-8.640;2022-08-25T11:24:50;20.55;;;19.15;;
65982;SDS011;52740;40.620;-8.640;2022-08-25T11:27:14;21.77;;;20.38;;
65982;SDS011;52740;40.620;-8.640;2022-08-25T11:29:24;20.35;;;18.98;;
65982;SDS011;52740;40.620;-8.640;2022-08-25T11:31:35;17.38;;;16.38;;
65982;SDS011;52740;40.620;-8.640;2022-08-25T11:33:38;23.13;;;21.83;;
65982;SDS011;52740;40.620;-8.640;2022-08-25T11:49:53;43.45;;;41.25;;
65982;SDS011;52740;40.620;-8.640;2022-08-25T11:52:04;45.00;;;42.60;;
65982;SDS011;52740;40.620;-8.640;2022-08-25T11:54:16;43.80;;;41.38;;
65982;SDS011;52740;40.620;-8.640;2022-08-25T11:56:31;40.45;;;38.35;;
65982;SDS011;52740;40.620;-8.640;2022-08-25T12:00:42;45.65;;;42.85;;
65982;SDS011;52740;40.620;-8.640;2022-08-25T12:04:46;48.00;;;45.38;;
65982;SDS011;52740;40.620;-8.640;2022-08-25T12:11:12;27.60;;;26.00;;
65982;SDS011;52740;40.620;-8.640;2022-08-25T12:17:43;26.83;;;25.25;;
65982;SDS011;52740;40.620;-8.640;2022-08-25T12:21:44;26.20;;;24.60;;
65982;SDS011;52740;40.620;-8.640;2022-08-25T12:30:29;23.88;;;22.48;;
65982;SDS011;52740;40.620;-8.640;2022-08-25T12:37:17;22.85;;;21.27;;
65982;SDS011;52740;40.620;-8.640;2022-08-25T12:39:20;20.98;;;19.67;;
65982;SDS011;52740;40.620;-8.640;2022-08-25T12:41:27;19.30;;;17.77;;
65982;SDS011;52740;40.620;-8.640;2022-08-25T12:43:32;20.73;;;19.38;;
65982;SDS011;52740;40.620;-8.640;2022-08-25T12:45:37;21.00;;;19.70;;
65982;SDS011;52740;40.620;-8.640;2022-08-25T12:47:44;23.08;;;21.52;;
65982;SDS011;52740;40.620;-8.640;2022-08-25T12:49:46;33.03;;;31.23;;
65982;SDS011;52740;40.620;-8.640;2022-08-25T12:51:53;39.28;;;37.03;;
65982;SDS011;52740;40.620;-8.640;2022-08-25T12:54:18;50.20;;;47.65;;
65982;SDS011;52740;40.620;-8.640;2022-08-25T12:56:46;40.22;;;38.03;;
65982;SDS011;52740;40.620;-8.640;2022-08-25T12:59:41;48.10;;;45.58;;
65982;SDS011;52740;40.620;-8.640;2022-08-25T13:06:37;27.70;;;25.90;;
65982;SDS011;52740;40.620;-8.640;2022-08-25T13:11:08;26.30;;;24.52;;
65982;SDS011;52740;40.620;-8.640;2022-08-25T13:13:17;37.10;;;35.05;;
65982;SDS011;52740;40.620;-8.640;2022-08-25T13:15:35;35.65;;;33.05;;
65982;SDS011;52740;40.620;-8.640;2022-08-25T13:17:39;23.08;;;21.17;;
65982;SDS011;52740;40.620;-8.640;2022-08-25T13:19:40;17.08;;;15.73;;
65982;SDS011;52740;40.620;-8.640;2022-08-25T13:21:41;16.48;;;15.27;;
65982;SDS011;52740;40.620;-8.640;2022-08-25T13:23:44;15.80;;;14.90;;
65982;SDS011;52740;40.620;-8.640;2022-08-25T13:25:48;16.40;;;15.25;;
65982;SDS011;52740;40.620;-8.640;2022-08-25T13:27:54;18.73;;;17.55;;
65982;SDS011;52740;40.620;-8.640;2022-08-25T13:29:58;16.08;;;14.88;;
65982;SDS011;52740;40.620;-8.640;2022-08-25T13:32:00;18.17;;;16.80;;
65982;SDS011;52740;40.620;-8.640;2022-08-25T13:34:04;20.80;;;19.23;;
65982;SDS011;52740;40.620;-8.640;2022-08-25T13:36:07;27.40;;;25.45;;
65982;SDS011;52740;40.620;-8.640;2022-08-25T13:38:34;32.67;;;30.17;;
65982;SDS011;52740;40.620;-8.640;2022-08-25T13:40:35;33.15;;;30.95;;
65982;SDS011;52740;40.620;-8.640;2022-08-25T13:42:37;38.42;;;36.33;;
65982;SDS011;52740;40.620;-8.640;2022-08-25T13:46:41;30.33;;;28.58;;
65982;SDS011;52740;40.620;-8.640;2022-08-25T13:48:42;28.40;;;26.33;;
65982;SDS011;52740;40.620;-8.640;2022-08-25T13:50:43;28.45;;;26.35;;